createdAt,value
2023-01-26T00:02:21.087Z,64.66
2023-01-26T00:04:49.494Z,64.52
2023-01-26T00:07:17.642Z,64.63
2023-01-26T00:09:45.989Z,64.46
2023-01-26T00:12:14.207Z,64.33
2023-01-26T00:14:51.561Z,64.37
2023-01-26T00:17:26.272Z,64.35
2023-01-26T00:19:55.867Z,64.22
2023-01-26T00:22:25.514Z,64.20
2023-01-26T00:24:56.231Z,64.05
2023-01-26T00:27:24.367Z,63.84
2023-01-26T00:29:52.585Z,63.70
2023-01-26T00:32:22.026Z,63.57
2023-01-26T00:34:50.300Z,63.63
2023-01-26T00:37:18.923Z,63.74
2023-01-26T00:39:46.996Z,63.63
2023-01-26T00:42:16.176Z,63.66
2023-01-26T00:44:44.543Z,63.67
2023-01-26T00:47:14.815Z,63.84
2023-01-26T00:49:43.282Z,63.62
2023-01-26T00:52:12.778Z,63.64
2023-01-26T00:54:40.995Z,63.63
2023-01-26T00:57:09.775Z,63.65
2023-01-26T00:59:38.084Z,63.69
2023-01-26T01:02:06.292Z,63.89
2023-01-26T01:04:35.892Z,63.94
2023-01-26T01:07:04.066Z,63.87
2023-01-26T01:09:33.829Z,63.95
2023-01-26T01:12:01.970Z,64.20
2023-01-26T01:14:30.442Z,64.58
2023-01-26T01:16:59.375Z,64.63
2023-01-26T01:19:27.569Z,64.67
2023-01-26T01:21:55.927Z,64.79
2023-01-26T01:24:25.259Z,64.96
2023-01-26T01:26:53.295Z,64.91
2023-01-26T01:29:22.338Z,64.82
2023-01-26T01:31:50.735Z,64.66
2023-01-26T01:34:18.981Z,64.75
2023-01-26T01:36:50.637Z,64.65
2023-01-26T01:39:18.925Z,64.76
2023-01-26T01:41:47.009Z,64.81
2023-01-26T01:44:22.887Z,64.96
2023-01-26T01:46:57.729Z,64.78
2023-01-26T01:49:28.469Z,64.70
2023-01-26T01:52:37.043Z,64.49
2023-01-26T01:55:07.589Z,64.53
2023-01-26T01:57:47.163Z,64.58
2023-01-26T02:00:18.619Z,64.51
2023-01-26T02:03:11.358Z,64.46
2023-01-26T02:05:43.286Z,64.53
2023-01-26T02:08:13.822Z,64.67
2023-01-26T02:10:43.961Z,64.56
2023-01-26T02:13:12.235Z,64.41
2023-01-26T02:15:43.383Z,64.07
2023-01-26T02:18:12.488Z,64.00
2023-01-26T02:20:43.018Z,64.04
2023-01-26T02:23:26.497Z,63.97
2023-01-26T02:25:54.967Z,63.94
2023-01-26T02:28:26.262Z,64.01
2023-01-26T02:30:55.143Z,63.87
2023-01-26T02:33:25.599Z,63.68
2023-01-26T02:35:54.850Z,63.63
2023-01-26T02:38:23.639Z,63.46
2023-01-26T02:41:09.212Z,63.24
2023-01-26T02:43:38.921Z,63.15
2023-01-26T02:46:07.258Z,63.28
2023-01-26T02:48:56.665Z,63.26
2023-01-26T02:51:25.152Z,63.17
2023-01-26T02:53:53.659Z,63.30
2023-01-26T02:56:22.679Z,63.31
2023-01-26T02:58:52.352Z,63.05
2023-01-26T03:01:20.446Z,63.04
2023-01-26T03:03:48.758Z,62.95
2023-01-26T03:06:17.517Z,62.83
2023-01-26T03:08:46.108Z,62.88
2023-01-26T03:11:14.275Z,63.09
2023-01-26T03:13:43.711Z,63.18
2023-01-26T03:16:12.114Z,63.52
2023-01-26T03:19:00.533Z,63.34
2023-01-26T03:21:47.843Z,63.59
2023-01-26T03:24:35.176Z,63.68
2023-01-26T03:27:25.380Z,63.82
2023-01-26T03:29:55.359Z,63.95
2023-01-26T03:32:25.229Z,64.10
2023-01-26T03:34:53.667Z,64.02
2023-01-26T03:37:22.842Z,64.13
2023-01-26T03:40:24.210Z,64.20
2023-01-26T03:43:11.305Z,64.25
2023-01-26T03:45:58.036Z,64.37
2023-01-26T03:48:45.721Z,64.48
2023-01-26T03:51:32.654Z,64.59
2023-01-26T03:54:19.734Z,64.70
2023-01-26T03:56:48.187Z,64.74
2023-01-26T03:59:17.075Z,64.88
2023-01-26T04:02:05.152Z,65.22
2023-01-26T04:04:54.370Z,65.40
2023-01-26T04:07:45.789Z,65.46
2023-01-26T04:10:13.946Z,65.59
2023-01-26T04:13:04.779Z,65.75
2023-01-26T04:15:52.801Z,65.72
2023-01-26T04:18:40.837Z,65.68
2023-01-26T04:21:28.067Z,65.74
2023-01-26T04:23:58.052Z,65.68
2023-01-26T04:26:27.953Z,65.70
2023-01-26T04:28:56.282Z,65.68
2023-01-26T04:31:24.759Z,65.57
2023-01-26T04:33:52.988Z,65.54
2023-01-26T04:36:22.768Z,65.49
2023-01-26T04:38:52.547Z,65.39
2023-01-26T04:41:22.338Z,65.43
2023-01-26T04:44:00.363Z,65.21
2023-01-26T04:46:29.076Z,65.19
2023-01-26T04:48:57.692Z,65.07
2023-01-26T04:51:28.422Z,65.00
2023-01-26T04:53:57.140Z,64.97
2023-01-26T04:56:26.405Z,64.97
2023-01-26T04:59:00.613Z,64.86
2023-01-26T05:01:34.809Z,65.08
2023-01-26T05:04:05.885Z,64.91
2023-01-26T05:06:35.562Z,64.94
2023-01-26T05:09:04.075Z,64.98
2023-01-26T05:11:39.225Z,64.88
2023-01-26T05:14:31.002Z,64.81
2023-01-26T05:17:26.081Z,64.76
2023-01-26T05:20:19.037Z,64.67
2023-01-26T05:23:04.112Z,64.53
2023-01-26T05:25:56.209Z,64.55
2023-01-26T05:28:25.881Z,64.54
2023-01-26T05:30:54.212Z,64.53
2023-01-26T05:33:25.492Z,64.57
2023-01-26T05:35:54.725Z,64.79
2023-01-26T05:38:22.888Z,64.95
2023-01-26T05:40:51.116Z,65.02
2023-01-26T05:43:19.776Z,65.12
2023-01-26T05:46:09.489Z,65.22
2023-01-26T05:48:39.215Z,65.24
2023-01-26T05:51:07.877Z,65.53
2023-01-26T05:53:38.244Z,65.54
2023-01-26T05:56:06.842Z,65.74
2023-01-26T05:58:37.210Z,65.64
2023-01-26T06:01:06.249Z,65.76
2023-01-26T06:03:39.994Z,65.81
2023-01-26T06:06:08.687Z,65.65
2023-01-26T06:08:42.632Z,65.69
2023-01-26T06:11:34.834Z,65.70
2023-01-26T06:14:21.469Z,65.75
2023-01-26T06:16:54.467Z,65.90
2023-01-26T06:19:26.613Z,65.99
2023-01-26T06:22:01.369Z,66.05
2023-01-26T06:24:30.905Z,66.27
2023-01-26T06:27:03.058Z,66.15
2023-01-26T06:29:32.038Z,66.16
2023-01-26T06:32:04.828Z,66.25
2023-01-26T06:34:34.001Z,66.10
2023-01-26T06:37:04.654Z,66.13
2023-01-26T06:39:36.559Z,66.11
2023-01-26T06:42:05.367Z,66.29
2023-01-26T06:44:36.603Z,66.49
2023-01-26T06:47:06.391Z,66.46
2023-01-26T06:49:34.830Z,66.44
2023-01-26T06:52:22.236Z,66.44
2023-01-26T06:54:52.781Z,66.65
2023-01-26T06:57:39.795Z,66.64
2023-01-26T07:00:25.521Z,66.78
2023-01-26T07:03:15.043Z,67.07
2023-01-26T07:05:43.193Z,67.14
2023-01-26T07:08:12.705Z,67.59
2023-01-26T07:10:40.828Z,67.92
2023-01-26T07:13:09.834Z,68.14
2023-01-26T07:15:37.966Z,68.26
2023-01-26T07:18:06.071Z,68.33
2023-01-26T07:20:34.296Z,68.40
2023-01-26T07:23:02.364Z,68.58
2023-01-26T07:25:31.846Z,68.78
2023-01-26T07:28:00.196Z,68.89
2023-01-26T07:30:28.666Z,68.98
2023-01-26T07:33:00.486Z,69.02
2023-01-26T07:35:29.993Z,69.03
2023-01-26T07:37:59.176Z,69.02
2023-01-26T07:40:27.735Z,69.28
2023-01-26T07:42:56.830Z,69.31
2023-01-26T07:46:00.370Z,69.62
2023-01-26T07:48:29.961Z,69.73
2023-01-26T07:50:59.845Z,69.99
2023-01-26T07:53:29.568Z,70.11
2023-01-26T07:56:12.306Z,70.27
2023-01-26T07:58:40.847Z,70.26
2023-01-26T08:01:10.823Z,70.23
2023-01-26T08:03:39.207Z,70.31
2023-01-26T08:06:11.783Z,70.45
2023-01-26T08:08:41.360Z,70.55
2023-01-26T08:11:10.576Z,70.35
2023-01-26T08:13:38.877Z,70.56
2023-01-26T08:16:11.049Z,70.63
2023-01-26T08:18:43.504Z,70.79
2023-01-26T08:21:13.225Z,70.90
2023-01-26T08:23:41.681Z,70.70
2023-01-26T08:26:13.546Z,70.80
2023-01-26T08:28:41.730Z,70.88
2023-01-26T08:31:14.287Z,71.06
2023-01-26T08:33:42.931Z,71.33
2023-01-26T08:36:12.210Z,71.33
2023-01-26T08:38:40.519Z,71.28
2023-01-26T08:41:09.426Z,70.97
2023-01-26T08:43:37.535Z,71.13
2023-01-26T08:46:05.993Z,71.25
2023-01-26T08:48:34.539Z,71.28
2023-01-26T08:51:04.011Z,71.20
2023-01-26T08:53:33.222Z,71.25
2023-01-26T08:56:06.078Z,71.21
2023-01-26T08:58:35.152Z,71.00
2023-01-26T09:01:07.066Z,70.83
2023-01-26T09:03:36.361Z,70.55
2023-01-26T09:06:05.328Z,70.58
2023-01-26T09:08:33.554Z,70.23
2023-01-26T09:11:02.443Z,70.26
2023-01-26T09:13:31.347Z,70.41
2023-01-26T09:16:20.175Z,70.31
2023-01-26T09:18:54.759Z,70.33
2023-01-26T09:21:24.198Z,70.34
2023-01-26T09:23:52.566Z,70.24
2023-01-26T09:26:20.906Z,70.26
2023-01-26T09:28:52.794Z,70.15
2023-01-26T09:31:21.274Z,70.29
2023-01-26T09:33:50.892Z,70.61
2023-01-26T09:36:19.285Z,70.57
2023-01-26T09:38:47.570Z,70.50
2023-01-26T09:41:28.670Z,70.48
2023-01-26T09:44:09.589Z,70.08
2023-01-26T09:46:40.831Z,69.94
2023-01-26T09:49:19.502Z,70.13
2023-01-26T09:52:03.531Z,70.10
2023-01-26T09:54:40.704Z,70.39
2023-01-26T09:57:17.321Z,70.68
2023-01-26T09:59:53.949Z,70.81
2023-01-26T10:02:50.235Z,70.59
2023-01-26T10:05:36.302Z,70.26
2023-01-26T10:08:14.967Z,70.24
2023-01-26T10:10:52.968Z,69.98
2023-01-26T10:13:22.369Z,69.68
2023-01-26T10:16:13.126Z,68.61
2023-01-26T10:18:49.797Z,67.86
2023-01-26T10:21:19.970Z,67.62
2023-01-26T10:23:56.169Z,67.41
2023-01-26T10:26:31.340Z,67.31
2023-01-26T10:28:59.507Z,66.51
2023-01-26T10:31:29.664Z,66.70
2023-01-26T10:34:17.315Z,66.60
2023-01-26T10:36:49.397Z,66.74
2023-01-26T10:39:18.069Z,66.47
2023-01-26T10:42:00.245Z,66.22
2023-01-26T10:44:39.484Z,65.84
2023-01-26T10:47:18.068Z,65.31
2023-01-26T10:49:46.243Z,65.25
2023-01-26T10:52:25.544Z,65.19
2023-01-26T10:55:16.501Z,65.26
2023-01-26T10:57:44.696Z,63.78
2023-01-26T11:00:20.290Z,62.72
2023-01-26T11:02:50.585Z,62.75
2023-01-26T11:05:21.144Z,62.60
2023-01-26T11:08:00.611Z,62.29
2023-01-26T11:10:36.335Z,62.10
2023-01-26T11:13:19.471Z,62.10
2023-01-26T11:16:11.915Z,61.84
2023-01-26T11:18:59.499Z,61.48
2023-01-26T11:21:32.362Z,61.36
2023-01-26T11:24:05.666Z,61.58
2023-01-26T11:27:06.020Z,61.57
2023-01-26T11:30:18.949Z,61.74
2023-01-26T11:33:07.439Z,61.62
2023-01-26T11:35:51.135Z,61.20
2023-01-26T11:38:22.036Z,61.11
2023-01-26T11:41:11.372Z,61.25
2023-01-26T11:44:03.308Z,61.10
2023-01-26T11:46:51.875Z,60.95
2023-01-26T11:49:34.983Z,60.37
2023-01-26T11:52:17.423Z,59.82
2023-01-26T11:54:58.001Z,59.53
2023-01-26T11:57:32.648Z,59.59
2023-01-26T12:00:02.091Z,59.51
2023-01-26T12:02:42.870Z,59.27
2023-01-26T12:05:48.235Z,59.33
2023-01-26T12:08:26.513Z,59.73
2023-01-26T12:10:54.569Z,59.48
2023-01-26T12:13:39.477Z,58.99
2023-01-26T12:16:14.483Z,58.96
2023-01-26T12:18:58.687Z,58.92
2023-01-26T12:21:30.682Z,58.99
2023-01-26T12:24:03.075Z,58.35
2023-01-26T12:26:37.193Z,58.68
2023-01-26T12:29:17.335Z,58.89
2023-01-26T12:32:05.756Z,59.15
2023-01-26T12:34:33.988Z,59.31
2023-01-26T12:37:02.303Z,59.42
2023-01-26T12:39:30.706Z,59.30
2023-01-26T12:42:12.380Z,59.26
2023-01-26T12:44:42.855Z,59.41
2023-01-26T12:47:25.005Z,59.57
2023-01-26T12:50:04.474Z,59.70
2023-01-26T12:52:43.635Z,59.35
2023-01-26T12:55:14.345Z,59.41
2023-01-26T12:57:46.650Z,59.83
2023-01-26T13:00:21.818Z,59.85
2023-01-26T13:02:57.191Z,60.08
2023-01-26T13:05:30.762Z,60.39
2023-01-26T13:07:59.601Z,60.87
2023-01-26T13:10:29.430Z,61.05
2023-01-26T13:13:02.275Z,61.41
2023-01-26T13:15:32.344Z,61.34
2023-01-26T13:18:02.295Z,61.32
2023-01-26T13:20:43.563Z,61.41
2023-01-26T13:23:37.754Z,61.45
2023-01-26T13:26:25.453Z,61.58
2023-01-26T13:28:54.509Z,61.04
2023-01-26T13:31:41.824Z,60.77
2023-01-26T13:34:10.000Z,60.83
2023-01-26T13:36:43.808Z,60.99
2023-01-26T13:39:31.757Z,61.10
2023-01-26T13:42:00.245Z,62.13
2023-01-26T13:44:38.661Z,62.42
2023-01-26T13:47:12.629Z,62.70
2023-01-26T13:49:44.666Z,62.71
2023-01-26T13:52:23.852Z,62.81
2023-01-26T13:55:03.287Z,62.86
2023-01-26T13:57:31.809Z,62.70
2023-01-26T14:00:00.620Z,62.62
2023-01-26T14:02:33.798Z,62.57
2023-01-26T14:05:02.276Z,62.72
2023-01-26T14:07:43.133Z,62.77
2023-01-26T14:10:20.826Z,63.22
2023-01-26T14:12:56.989Z,63.06
2023-01-26T14:15:47.269Z,62.97
2023-01-26T14:18:28.608Z,63.09
2023-01-26T14:21:16.654Z,63.17
2023-01-26T14:23:44.908Z,63.38
2023-01-26T14:26:50.213Z,63.54
2023-01-26T14:29:29.307Z,63.66
2023-01-26T14:31:59.995Z,63.60
2023-01-26T14:34:30.932Z,63.83
2023-01-26T14:37:16.359Z,63.78
2023-01-26T14:39:48.165Z,63.82
2023-01-26T14:42:20.460Z,64.02
2023-01-26T14:44:49.126Z,64.27
2023-01-26T14:47:27.482Z,64.38
2023-01-26T14:50:05.388Z,64.50
2023-01-26T14:52:38.393Z,64.75
2023-01-26T14:55:31.005Z,64.74
2023-01-26T14:58:08.982Z,64.78
2023-01-26T15:00:58.736Z,64.76
2023-01-26T15:03:34.708Z,65.03
2023-01-26T15:06:15.824Z,65.24
2023-01-26T15:09:02.880Z,65.52
2023-01-26T15:11:58.812Z,65.58
2023-01-26T15:14:37.290Z,65.73
2023-01-26T15:17:05.898Z,65.70
2023-01-26T15:19:41.262Z,65.65
2023-01-26T15:22:29.572Z,65.85
2023-01-26T15:25:02.564Z,65.82
2023-01-26T15:27:32.982Z,65.87
2023-01-26T15:30:01.800Z,65.93
2023-01-26T15:32:32.548Z,65.89
2023-01-26T15:35:17.804Z,65.87
2023-01-26T15:37:46.072Z,65.99
2023-01-26T15:40:15.488Z,66.19
2023-01-26T15:42:43.735Z,66.22
2023-01-26T15:45:23.708Z,66.25
2023-01-26T15:47:51.993Z,66.51
2023-01-26T15:50:27.936Z,66.67
2023-01-26T15:52:56.630Z,66.77
2023-01-26T15:55:26.820Z,66.90
2023-01-26T15:57:55.109Z,66.84
2023-01-26T16:00:23.730Z,66.71
2023-01-26T16:02:53.247Z,66.68
2023-01-26T16:05:22.980Z,66.99
2023-01-26T16:07:52.848Z,67.11
2023-01-26T16:10:21.094Z,67.42
2023-01-26T16:12:51.932Z,67.63
2023-01-26T16:15:39.381Z,67.66
2023-01-26T16:18:07.803Z,67.77
2023-01-26T16:20:37.762Z,67.76
2023-01-26T16:23:27.653Z,67.79
2023-01-26T16:25:55.931Z,67.69
2023-01-26T16:28:24.110Z,67.79
2023-01-26T16:30:52.318Z,67.73
2023-01-26T16:33:21.692Z,67.72
2023-01-26T16:35:50.075Z,67.82
2023-01-26T16:38:18.458Z,67.76
2023-01-26T16:40:47.719Z,67.72
2023-01-26T16:43:24.133Z,67.67
2023-01-26T16:45:52.843Z,67.70
2023-01-26T16:48:20.915Z,67.54
2023-01-26T16:50:53.334Z,67.55
2023-01-26T16:53:30.556Z,67.44
2023-01-26T16:55:59.007Z,67.15
2023-01-26T16:58:27.432Z,67.20
2023-01-26T17:00:55.663Z,67.41
2023-01-26T17:03:24.219Z,67.47
2023-01-26T17:05:56.038Z,67.54
2023-01-26T17:08:24.406Z,67.49
2023-01-26T17:11:01.986Z,67.61
2023-01-26T17:13:31.717Z,67.82
2023-01-26T17:16:00.095Z,67.95
2023-01-26T17:18:33.586Z,68.02
2023-01-26T17:21:03.069Z,68.05
2023-01-26T17:23:31.578Z,67.98
2023-01-26T17:26:00.496Z,67.73
2023-01-26T17:28:28.678Z,67.76
2023-01-26T17:31:00.059Z,67.70
2023-01-26T17:33:30.021Z,67.78
2023-01-26T17:36:02.201Z,67.94
2023-01-26T17:38:30.678Z,68.03
2023-01-26T17:40:59.178Z,68.19
2023-01-26T17:43:27.425Z,68.23
2023-01-26T17:46:03.908Z,68.15
2023-01-26T17:48:33.259Z,68.22
2023-01-26T17:51:01.535Z,68.28
2023-01-26T17:53:29.839Z,68.13
2023-01-26T17:55:57.979Z,68.27
2023-01-26T17:58:26.106Z,68.36
2023-01-26T18:00:54.312Z,68.41
2023-01-26T18:03:26.432Z,68.39
2023-01-26T18:05:55.221Z,68.52
2023-01-26T18:08:23.892Z,68.37
2023-01-26T18:11:02.621Z,68.00
2023-01-26T18:13:32.104Z,68.04
2023-01-26T18:16:00.711Z,68.10
2023-01-26T18:18:29.568Z,68.12
2023-01-26T18:20:58.133Z,68.24
2023-01-26T18:23:26.348Z,68.40
2023-01-26T18:25:54.706Z,68.51
2023-01-26T18:28:23.240Z,68.64
2023-01-26T18:30:51.315Z,68.69
2023-01-26T18:33:19.486Z,68.68
2023-01-26T18:35:47.560Z,68.47
2023-01-26T18:38:15.890Z,68.23
2023-01-26T18:40:44.196Z,68.18
2023-01-26T18:43:12.642Z,68.23
2023-01-26T18:45:42.228Z,68.36
2023-01-26T18:48:10.401Z,68.25
2023-01-26T18:50:39.141Z,68.23
2023-01-26T18:53:07.683Z,68.20
2023-01-26T18:55:36.015Z,68.20
2023-01-26T18:58:04.137Z,68.23
2023-01-26T19:00:32.566Z,68.26
2023-01-26T19:03:00.647Z,68.10
2023-01-26T19:05:29.552Z,68.05
2023-01-26T19:07:57.801Z,67.95
2023-01-26T19:10:27.935Z,67.95
2023-01-26T19:12:56.697Z,67.90
2023-01-26T19:15:25.101Z,67.95
2023-01-26T19:17:53.602Z,67.98
2023-01-26T19:20:22.432Z,67.92
2023-01-26T19:22:55.324Z,67.95
2023-01-26T19:25:25.497Z,67.75
2023-01-26T19:27:53.823Z,67.72
2023-01-26T19:30:23.664Z,67.46
2023-01-26T19:33:10.592Z,67.61
2023-01-26T19:35:38.952Z,67.73
2023-01-26T19:38:07.091Z,67.72
2023-01-26T19:40:38.189Z,67.61
2023-01-26T19:43:06.930Z,67.67
2023-01-26T19:45:35.550Z,67.53
2023-01-26T19:48:03.907Z,67.22
2023-01-26T19:50:32.101Z,66.78
2023-01-26T19:53:00.189Z,66.89
2023-01-26T19:55:28.317Z,67.25
2023-01-26T19:57:56.728Z,67.32
2023-01-26T20:00:26.160Z,67.33
2023-01-26T20:02:54.280Z,67.44
2023-01-26T20:05:22.688Z,67.39
2023-01-26T20:07:51.024Z,67.40
2023-01-26T20:10:21.706Z,67.52
2023-01-26T20:12:55.935Z,67.43
2023-01-26T20:15:24.758Z,67.50
2023-01-26T20:17:54.321Z,67.45
2023-01-26T20:20:22.482Z,67.34
2023-01-26T20:22:50.518Z,67.47
2023-01-26T20:25:18.635Z,67.35
2023-01-26T20:27:47.226Z,67.36
2023-01-26T20:30:15.863Z,67.49
2023-01-26T20:32:44.112Z,67.53
2023-01-26T20:35:13.396Z,67.39
2023-01-26T20:37:45.028Z,67.43
2023-01-26T20:40:13.692Z,67.40
2023-01-26T20:42:42.426Z,67.53
2023-01-26T20:45:11.434Z,67.48
2023-01-26T20:47:40.659Z,67.42
2023-01-26T20:50:10.259Z,67.44
2023-01-26T20:52:39.055Z,67.53
2023-01-26T20:55:08.290Z,67.44
2023-01-26T20:57:37.592Z,67.68
2023-01-26T21:00:07.465Z,67.74
2023-01-26T21:02:35.616Z,67.80
2023-01-26T21:05:05.814Z,67.88
2023-01-26T21:07:34.572Z,67.83
2023-01-26T21:10:02.912Z,67.63
2023-01-26T21:12:31.196Z,67.81
2023-01-26T21:14:59.274Z,68.12
2023-01-26T21:17:28.725Z,68.43
2023-01-26T21:19:57.222Z,68.48
2023-01-26T21:22:25.238Z,68.58
2023-01-26T21:24:53.768Z,68.50
2023-01-26T21:27:21.892Z,68.40
2023-01-26T21:29:50.199Z,68.37
2023-01-26T21:32:18.326Z,68.29
2023-01-26T21:34:46.318Z,68.18
2023-01-26T21:37:15.486Z,68.26
2023-01-26T21:39:44.409Z,68.19
2023-01-26T21:42:12.704Z,68.17
2023-01-26T21:45:00.156Z,68.02
2023-01-26T21:47:28.474Z,68.15
2023-01-26T21:49:58.704Z,68.06
2023-01-26T21:52:45.267Z,68.04
2023-01-26T21:55:13.322Z,68.18
2023-01-26T21:58:00.171Z,68.06
2023-01-26T22:00:28.665Z,68.10
2023-01-26T22:02:59.665Z,68.17
2023-01-26T22:05:27.708Z,68.02
2023-01-26T22:08:01.052Z,68.09
2023-01-26T22:10:29.276Z,68.09
2023-01-26T22:12:57.530Z,68.20
2023-01-26T22:15:26.030Z,68.33
2023-01-26T22:18:00.331Z,68.34
2023-01-26T22:20:28.386Z,68.29
2023-01-26T22:22:56.431Z,68.22
2023-01-26T22:25:24.676Z,68.19
2023-01-26T22:27:52.785Z,68.21
2023-01-26T22:30:21.314Z,68.44
2023-01-26T22:32:49.852Z,68.40
2023-01-26T22:35:18.474Z,68.51
2023-01-26T22:37:46.575Z,68.56
2023-01-26T22:40:15.528Z,68.60
2023-01-26T22:42:43.615Z,68.47
2023-01-26T22:45:12.122Z,68.48
2023-01-26T22:47:41.287Z,68.43
2023-01-26T22:50:10.728Z,68.41
2023-01-26T22:52:39.500Z,68.16
2023-01-26T22:55:07.933Z,68.22
2023-01-26T22:57:36.063Z,68.17
2023-01-26T23:00:06.272Z,68.14
2023-01-26T23:02:34.817Z,68.26
2023-01-26T23:05:03.167Z,68.25
2023-01-26T23:07:31.461Z,67.96
2023-01-26T23:09:59.843Z,67.85
2023-01-26T23:12:28.050Z,68.09
2023-01-26T23:14:59.655Z,68.28
2023-01-26T23:17:28.831Z,68.20
2023-01-26T23:19:57.985Z,68.24
2023-01-26T23:22:26.259Z,68.34
2023-01-26T23:25:12.929Z,68.29
2023-01-26T23:27:40.986Z,68.30
2023-01-26T23:30:10.282Z,68.26
2023-01-26T23:32:39.058Z,68.37
2023-01-26T23:35:07.440Z,68.38
2023-01-26T23:37:37.327Z,68.43
2023-01-26T23:40:06.308Z,68.24
2023-01-26T23:42:45.261Z,68.25
2023-01-26T23:45:22.595Z,68.34
2023-01-26T23:47:50.810Z,68.10
2023-01-26T23:50:19.066Z,68.10
2023-01-26T23:52:47.353Z,68.08
2023-01-26T23:55:15.732Z,67.92
2023-01-26T23:57:43.820Z,67.71
